RYR6DB BIKF-LHBP
Flight info
| Callsign | RYR6DB |
|---|---|
| Flight time | N/A |
| Altitude | 35000 |
| Route | OSKUM3A OSKUM DCT ROSTI DCT VALDI/N0454F350 DCT RAMUD DCT RAXLU DCT HDO DCT ODNEM DCT BERVA DCT NIT M748 ARFOX |
| Aircraft | B738/M-SDE2E3FGHIRWXY/LB1 |
Departure
| Time | 2026-05-04 15:47 |
|---|---|
| Airport | Keflavik International Airport (BIKF) |
Arrival
| Time | N/A |
|---|---|
| Airport | Budapest Liszt Ferenc International Airport (LHBP) |
| Time | Latitude | Longitude | Altitude | Speed | Heading |
|---|---|---|---|---|---|
| 2026-05-04 15:19 | 63.99323 | -22.61800 | 139 ft | 0 kts | 90° |
| 2026-05-04 15:34 | 63.99324 | -22.61875 | 139 ft | 4 kts | 98° |
| 2026-05-04 15:35 | 63.99344 | -22.61980 | 139 ft | 4 kts | 158° |
| 2026-05-04 15:35 | 63.99352 | -22.61986 | 139 ft | 0 kts | 180° |
| 2026-05-04 15:39 | 63.99346 | -22.61986 | 139 ft | 3 kts | 180° |
| 2026-05-04 15:40 | 63.99306 | -22.61986 | 139 ft | 9 kts | 180° |
| 2026-05-04 15:40 | 63.99222 | -22.61986 | 139 ft | 13 kts | 180° |
| 2026-05-04 15:40 | 63.99174 | -22.61929 | 139 ft | 8 kts | 100° |
| 2026-05-04 15:40 | 63.99173 | -22.61803 | 142 ft | 8 kts | 90° |
| 2026-05-04 15:41 | 63.99173 | -22.61674 | 144 ft | 9 kts | 90° |
| 2026-05-04 15:41 | 63.99172 | -22.61479 | 149 ft | 17 kts | 90° |
| 2026-05-04 15:41 | 63.99172 | -22.61158 | 155 ft | 21 kts | 90° |
| 2026-05-04 15:41 | 63.99131 | -22.60952 | 161 ft | 15 kts | 159° |
| 2026-05-04 15:42 | 63.99032 | -22.60938 | 165 ft | 14 kts | 180° |
| 2026-05-04 15:42 | 63.98932 | -22.60939 | 166 ft | 17 kts | 180° |
| 2026-05-04 15:42 | 63.98777 | -22.60939 | 161 ft | 26 kts | 180° |
| 2026-05-04 15:42 | 63.98602 | -22.60941 | 163 ft | 24 kts | 180° |
| 2026-05-04 15:43 | 63.98438 | -22.60941 | 165 ft | 23 kts | 180° |
| 2026-05-04 15:43 | 63.98284 | -22.60942 | 164 ft | 22 kts | 180° |
| 2026-05-04 15:43 | 63.98108 | -22.60941 | 166 ft | 29 kts | 180° |
| 2026-05-04 15:43 | 63.97891 | -22.60941 | 169 ft | 32 kts | 180° |
| 2026-05-04 15:44 | 63.97674 | -22.60941 | 168 ft | 30 kts | 180° |
| 2026-05-04 15:44 | 63.97467 | -22.60940 | 165 ft | 29 kts | 180° |
| 2026-05-04 15:44 | 63.97271 | -22.60941 | 159 ft | 27 kts | 180° |
| 2026-05-04 15:44 | 63.97086 | -22.60941 | 153 ft | 26 kts | 180° |
| 2026-05-04 15:45 | 63.96916 | -22.60941 | 146 ft | 24 kts | 180° |
| 2026-05-04 15:45 | 63.96754 | -22.60942 | 140 ft | 23 kts | 180° |
| 2026-05-04 15:45 | 63.96598 | -22.60940 | 135 ft | 22 kts | 180° |
| 2026-05-04 15:45 | 63.96466 | -22.60890 | 135 ft | 13 kts | 123° |
| 2026-05-04 15:46 | 63.96461 | -22.60701 | 140 ft | 12 kts | 90° |
| 2026-05-04 15:46 | 63.96477 | -22.60562 | 144 ft | 9 kts | 43° |
| 2026-05-04 15:46 | 63.96532 | -22.60543 | 146 ft | 9 kts | 359° |
| 2026-05-04 15:46 | 63.96798 | -22.60542 | 155 ft | 78 kts | 0° |
| 2026-05-04 15:47 | 63.97604 | -22.60542 | 178 ft | 151 kts | 0° |
| 2026-05-04 15:47 | 63.98792 | -22.60521 | 540 ft | 191 kts | 1° |
| 2026-05-04 15:47 | 64.00205 | -22.60565 | 1153 ft | 210 kts | 359° |
| 2026-05-04 15:47 | 64.01608 | -22.60592 | 2230 ft | 184 kts | 0° |
| 2026-05-04 15:48 | 64.02888 | -22.60544 | 2656 ft | 191 kts | 1° |
| 2026-05-04 15:48 | 64.04235 | -22.60363 | 3252 ft | 197 kts | 13° |
| 2026-05-04 15:48 | 64.06251 | -22.56068 | 4244 ft | 235 kts | 74° |
| 2026-05-04 15:49 | 64.06403 | -22.52186 | 4785 ft | 254 kts | 86° |
| 2026-05-04 15:49 | 64.06384 | -22.48087 | 5578 ft | 262 kts | 88° |
| 2026-05-04 15:49 | 64.06348 | -22.43885 | 6385 ft | 268 kts | 90° |
| 2026-05-04 15:49 | 64.05895 | -22.39719 | 7171 ft | 277 kts | 115° |
| 2026-05-04 15:50 | 64.04964 | -22.35864 | 7907 ft | 285 kts | 118° |
| 2026-05-04 15:50 | 64.03966 | -22.31914 | 8684 ft | 290 kts | 118° |
| 2026-05-04 15:50 | 64.02940 | -22.27880 | 9435 ft | 297 kts | 118° |
| 2026-05-04 15:50 | 64.01894 | -22.23749 | 10180 ft | 304 kts | 118° |
| 2026-05-04 15:51 | 64.00820 | -22.19492 | 10644 ft | 319 kts | 118° |
| 2026-05-04 15:51 | 63.99673 | -22.14930 | 10829 ft | 344 kts | 118° |
| 2026-05-04 15:51 | 63.98446 | -22.10051 | 11071 ft | 365 kts | 119° |
| 2026-05-04 15:51 | 63.97164 | -22.04953 | 11563 ft | 376 kts | 119° |
| 2026-05-04 15:52 | 63.95851 | -21.99746 | 12173 ft | 384 kts | 119° |
| 2026-05-04 15:52 | 63.94526 | -21.94496 | 12764 ft | 392 kts | 119° |
| 2026-05-04 15:52 | 63.93157 | -21.89077 | 13410 ft | 399 kts | 119° |
| 2026-05-04 15:52 | 63.91762 | -21.83572 | 14009 ft | 406 kts | 120° |
| 2026-05-04 15:53 | 63.90333 | -21.77952 | 14524 ft | 413 kts | 120° |
| 2026-05-04 15:53 | 63.88886 | -21.72275 | 15098 ft | 418 kts | 120° |
| 2026-05-04 15:53 | 63.87418 | -21.66532 | 15678 ft | 423 kts | 120° |
| 2026-05-04 15:53 | 63.85928 | -21.60719 | 16235 ft | 429 kts | 120° |
| 2026-05-04 15:54 | 63.84413 | -21.54825 | 16790 ft | 435 kts | 120° |
| 2026-05-04 15:54 | 63.82877 | -21.48871 | 17345 ft | 441 kts | 120° |
| 2026-05-04 15:54 | 63.81354 | -21.42978 | 17879 ft | 446 kts | 120° |
| 2026-05-04 15:54 | 63.79801 | -21.36976 | 18414 ft | 451 kts | 120° |
| 2026-05-04 15:55 | 63.78199 | -21.30806 | 18906 ft | 456 kts | 120° |
| 2026-05-04 15:55 | 63.76648 | -21.24541 | 19411 ft | 459 kts | 113° |
| 2026-05-04 15:55 | 63.75767 | -21.17643 | 19907 ft | 457 kts | 95° |
| 2026-05-04 15:55 | 63.75341 | -21.10518 | 20443 ft | 458 kts | 93° |
| 2026-05-04 15:56 | 63.74945 | -21.03347 | 20919 ft | 463 kts | 93° |
| 2026-05-04 15:56 | 63.74536 | -20.96108 | 21388 ft | 467 kts | 94° |
| 2026-05-04 15:56 | 63.74103 | -20.88816 | 21860 ft | 471 kts | 94° |
| 2026-05-04 15:56 | 63.73645 | -20.81477 | 22335 ft | 474 kts | 95° |
| 2026-05-04 15:57 | 63.73175 | -20.74178 | 22792 ft | 478 kts | 95° |
| 2026-05-04 15:57 | 63.72688 | -20.66730 | 23240 ft | 482 kts | 95° |
| 2026-05-04 15:57 | 63.72193 | -20.59230 | 23683 ft | 485 kts | 95° |
| 2026-05-04 15:57 | 63.71693 | -20.51673 | 24063 ft | 489 kts | 95° |
| 2026-05-04 15:58 | 63.71191 | -20.44083 | 24442 ft | 491 kts | 94° |
| 2026-05-04 15:58 | 63.70823 | -20.36425 | 24827 ft | 491 kts | 90° |
| 2026-05-04 15:58 | 63.70592 | -20.28730 | 25201 ft | 493 kts | 89° |
| 2026-05-04 15:58 | 63.70419 | -20.20991 | 25558 ft | 495 kts | 88° |
| 2026-05-04 15:59 | 63.70261 | -20.13307 | 25899 ft | 498 kts | 88° |
| 2026-05-04 15:59 | 63.70088 | -20.05489 | 26244 ft | 501 kts | 89° |
| 2026-05-04 15:59 | 63.69894 | -19.97623 | 26573 ft | 504 kts | 89° |
| 2026-05-04 15:59 | 63.69678 | -19.89681 | 26907 ft | 507 kts | 89° |
| 2026-05-04 16:00 | 63.69446 | -19.81753 | 27232 ft | 510 kts | 90° |
| 2026-05-04 16:00 | 63.69202 | -19.73767 | 27551 ft | 513 kts | 90° |
| 2026-05-04 16:00 | 63.68949 | -19.65719 | 27863 ft | 515 kts | 90° |
| 2026-05-04 16:00 | 63.68690 | -19.57654 | 28170 ft | 518 kts | 90° |
| 2026-05-04 16:01 | 63.68428 | -19.49647 | 28470 ft | 520 kts | 90° |
| 2026-05-04 16:01 | 63.68158 | -19.41501 | 28752 ft | 523 kts | 90° |
| 2026-05-04 16:01 | 63.67883 | -19.33297 | 29033 ft | 526 kts | 90° |
| 2026-05-04 16:01 | 63.67603 | -19.25066 | 29348 ft | 528 kts | 90° |
| 2026-05-04 16:02 | 63.67317 | -19.16800 | 29616 ft | 531 kts | 90° |
| 2026-05-04 16:02 | 63.67026 | -19.08497 | 29870 ft | 533 kts | 90° |
| 2026-05-04 16:02 | 63.66425 | -18.91811 | 30426 ft | 535 kts | 91° |
| 2026-05-04 16:03 | 63.66120 | -18.83584 | 30776 ft | 533 kts | 91° |
| 2026-05-04 16:03 | 63.65807 | -18.75291 | 31165 ft | 531 kts | 91° |
| 2026-05-04 16:03 | 63.65491 | -18.67018 | 31523 ft | 529 kts | 91° |
| 2026-05-04 16:03 | 63.65172 | -18.58780 | 31839 ft | 529 kts | 91° |
| 2026-05-04 16:04 | 63.64850 | -18.50539 | 32119 ft | 529 kts | 91° |
| 2026-05-04 16:04 | 63.64190 | -18.34082 | 32767 ft | 527 kts | 91° |
| 2026-05-04 16:04 | 63.63854 | -18.25890 | 33109 ft | 525 kts | 91° |
| 2026-05-04 16:05 | 63.63514 | -18.17722 | 33449 ft | 524 kts | 92° |
| 2026-05-04 16:05 | 63.63170 | -18.09556 | 33765 ft | 523 kts | 92° |
| 2026-05-04 16:05 | 63.62475 | -17.93403 | 34351 ft | 521 kts | 92° |
| 2026-05-04 16:06 | 63.62120 | -17.85307 | 34647 ft | 519 kts | 92° |
| 2026-05-04 16:06 | 63.61157 | -17.63869 | 35171 ft | 520 kts | 92° |
| 2026-05-04 16:07 | 63.60659 | -17.53025 | 35182 ft | 521 kts | 92° |
| 2026-05-04 16:08 | 63.59130 | -17.20918 | 35170 ft | 516 kts | 93° |
| 2026-05-04 16:09 | 63.57127 | -16.80962 | 35169 ft | 514 kts | 93° |
| 2026-05-04 16:10 | 63.55450 | -16.49131 | 35170 ft | 517 kts | 94° |
| 2026-05-04 16:11 | 63.53684 | -16.17015 | 35174 ft | 521 kts | 94° |
| 2026-05-04 16:12 | 63.50885 | -15.68668 | 35164 ft | 524 kts | 94° |
| 2026-05-04 16:13 | 63.48917 | -15.36312 | 35158 ft | 524 kts | 95° |
| 2026-05-04 16:14 | 63.46887 | -15.04160 | 35156 ft | 523 kts | 95° |
| 2026-05-04 16:16 | 63.44255 | -14.64128 | 35154 ft | 521 kts | 96° |
| 2026-05-04 16:17 | 63.41516 | -14.24180 | 35150 ft | 520 kts | 96° |
| 2026-05-04 16:18 | 63.38902 | -13.92513 | 35144 ft | 522 kts | 101° |
| 2026-05-04 16:19 | 63.34860 | -13.53076 | 35137 ft | 523 kts | 101° |
| 2026-05-04 16:20 | 63.30837 | -13.13695 | 35128 ft | 524 kts | 101° |
| 2026-05-04 16:22 | 63.26681 | -12.74222 | 35123 ft | 525 kts | 102° |
| 2026-05-04 16:23 | 63.21551 | -12.27036 | 35110 ft | 526 kts | 102° |
| 2026-05-04 16:25 | 63.16265 | -11.80011 | 35108 ft | 525 kts | 103° |
| 2026-05-04 16:26 | 63.09897 | -11.25320 | 35099 ft | 525 kts | 103° |
| 2026-05-04 16:28 | 63.05235 | -10.86536 | 35095 ft | 524 kts | 104° |
| 2026-05-04 16:29 | 62.98536 | -10.32481 | 35086 ft | 524 kts | 104° |
| 2026-05-04 16:31 | 62.93951 | -9.96546 | 35081 ft | 524 kts | 105° |
| 2026-05-04 16:32 | 62.87928 | -9.50558 | 35071 ft | 524 kts | 105° |
| 2026-05-04 16:33 | 62.83823 | -9.19957 | 35068 ft | 523 kts | 105° |
| 2026-05-04 16:34 | 62.80704 | -8.97081 | 35063 ft | 523 kts | 106° |
| 2026-05-04 16:35 | 62.74376 | -8.51632 | 35058 ft | 522 kts | 107° |
| 2026-05-04 16:36 | 62.71155 | -8.28968 | 35059 ft | 521 kts | 107° |
| 2026-05-04 16:37 | 62.67916 | -8.06478 | 35053 ft | 521 kts | 107° |
| 2026-05-04 16:38 | 62.63527 | -7.76472 | 35050 ft | 520 kts | 108° |
| 2026-05-04 16:39 | 62.57974 | -7.39243 | 35042 ft | 520 kts | 108° |
| 2026-05-04 16:40 | 62.53454 | -7.09513 | 35040 ft | 519 kts | 109° |
| 2026-05-04 16:41 | 62.47738 | -6.72626 | 35038 ft | 518 kts | 109° |
| 2026-05-04 16:43 | 62.41914 | -6.35812 | 35031 ft | 517 kts | 110° |
| 2026-05-04 16:43 | 62.38380 | -6.13837 | 35033 ft | 517 kts | 110° |
| 2026-05-04 16:45 | 62.31238 | -5.70213 | 35027 ft | 515 kts | 110° |
| 2026-05-04 16:46 | 62.25198 | -5.34117 | 35023 ft | 514 kts | 111° |
| 2026-05-04 16:47 | 62.20295 | -5.05320 | 35020 ft | 514 kts | 111° |
| 2026-05-04 16:48 | 62.15353 | -4.76737 | 35021 ft | 513 kts | 112° |
| 2026-05-04 16:49 | 62.10341 | -4.48183 | 35019 ft | 513 kts | 112° |
| 2026-05-04 16:50 | 62.05292 | -4.19841 | 35021 ft | 513 kts | 112° |
| 2026-05-04 16:51 | 62.01454 | -3.98579 | 35021 ft | 512 kts | 113° |
| 2026-05-04 16:52 | 61.96292 | -3.70341 | 35010 ft | 512 kts | 113° |
| 2026-05-04 16:53 | 61.92404 | -3.49339 | 35015 ft | 511 kts | 114° |
| 2026-05-04 16:54 | 61.87150 | -3.21314 | 35012 ft | 511 kts | 114° |
| 2026-05-04 16:55 | 61.79193 | -2.79613 | 35012 ft | 510 kts | 115° |
| 2026-05-04 16:56 | 61.72465 | -2.45023 | 35011 ft | 509 kts | 115° |
| 2026-05-04 16:57 | 61.68416 | -2.24491 | 35008 ft | 508 kts | 115° |
| 2026-05-04 16:58 | 61.62956 | -1.97129 | 35008 ft | 506 kts | 116° |
| 2026-05-04 17:00 | 61.54711 | -1.56499 | 35002 ft | 504 kts | 116° |
| 2026-05-04 17:01 | 61.47785 | -1.22977 | 35003 ft | 502 kts | 117° |
| 2026-05-04 17:02 | 61.42183 | -0.96260 | 34999 ft | 501 kts | 117° |
| 2026-05-04 17:03 | 61.37961 | -0.76349 | 34998 ft | 500 kts | 117° |
| 2026-05-04 17:03 | 61.33740 | -0.56628 | 34993 ft | 499 kts | 117° |
| 2026-05-04 17:04 | 61.28051 | -0.30339 | 34996 ft | 498 kts | 118° |
| 2026-05-04 17:05 | 61.22297 | -0.04259 | 34987 ft | 496 kts | 122° |
| 2026-05-04 17:06 | 61.18338 | 0.07118 | 34987 ft | 484 kts | 139° |
| 2026-05-04 17:06 | 61.16007 | 0.12138 | 34986 ft | 484 kts | 139° |
| 2026-05-04 17:07 | 61.09749 | 0.25402 | 34980 ft | 484 kts | 139° |
| 2026-05-04 17:07 | 61.04312 | 0.37026 | 34984 ft | 484 kts | 139° |
| 2026-05-04 17:08 | 60.97321 | 0.52022 | 34984 ft | 483 kts | 139° |
| 2026-05-04 17:09 | 60.92658 | 0.61980 | 34979 ft | 483 kts | 139° |
| 2026-05-04 17:09 | 60.87983 | 0.71912 | 34981 ft | 483 kts | 139° |
| 2026-05-04 17:10 | 60.76307 | 0.96514 | 34981 ft | 483 kts | 139° |
| 2026-05-04 17:11 | 60.71611 | 1.06332 | 34978 ft | 483 kts | 139° |
| 2026-05-04 17:12 | 60.64597 | 1.20916 | 34979 ft | 482 kts | 139° |
| 2026-05-04 17:13 | 60.52828 | 1.45173 | 34971 ft | 481 kts | 140° |
| 2026-05-04 17:14 | 60.43431 | 1.64349 | 34971 ft | 480 kts | 140° |
| 2026-05-04 17:15 | 60.36355 | 1.78680 | 34970 ft | 480 kts | 140° |
| 2026-05-04 17:16 | 60.26900 | 1.97683 | 34970 ft | 479 kts | 140° |
| 2026-05-04 17:17 | 60.17456 | 2.16501 | 34961 ft | 479 kts | 140° |
| 2026-05-04 17:18 | 60.07957 | 2.35268 | 34963 ft | 480 kts | 140° |
| 2026-05-04 17:19 | 59.98528 | 2.53739 | 34962 ft | 480 kts | 140° |
| 2026-05-04 17:20 | 59.88958 | 2.72329 | 34957 ft | 480 kts | 141° |
| 2026-05-04 17:20 | 59.81805 | 2.86120 | 34956 ft | 480 kts | 141° |
| 2026-05-04 17:21 | 59.72207 | 3.04491 | 34951 ft | 478 kts | 141° |
| 2026-05-04 17:22 | 59.67412 | 3.13610 | 34955 ft | 477 kts | 141° |
| 2026-05-04 17:23 | 59.57865 | 3.31654 | 34947 ft | 476 kts | 141° |
| 2026-05-04 17:24 | 59.50681 | 3.45135 | 34954 ft | 475 kts | 141° |
| 2026-05-04 17:25 | 59.41137 | 3.62916 | 34951 ft | 474 kts | 142° |
| 2026-05-04 17:26 | 59.31541 | 3.80647 | 34952 ft | 474 kts | 142° |
| 2026-05-04 17:27 | 59.19534 | 4.02631 | 34944 ft | 475 kts | 142° |
| 2026-05-04 17:28 | 59.09865 | 4.20174 | 34940 ft | 475 kts | 142° |
| 2026-05-04 17:29 | 58.95357 | 4.46234 | 34986 ft | 476 kts | 143° |
| 2026-05-04 17:30 | 58.87910 | 4.59474 | 34943 ft | 492 kts | 143° |
| 2026-05-04 17:31 | 58.82836 | 4.68459 | 34931 ft | 495 kts | 143° |
| 2026-05-04 17:32 | 58.70141 | 4.90797 | 34920 ft | 495 kts | 143° |
| 2026-05-04 17:33 | 58.59995 | 5.08471 | 34919 ft | 490 kts | 143° |
| 2026-05-04 17:34 | 58.49952 | 5.25823 | 34918 ft | 486 kts | 143° |
| 2026-05-04 17:35 | 58.37477 | 5.47182 | 34922 ft | 482 kts | 144° |
| 2026-05-04 17:36 | 58.32569 | 5.55526 | 34920 ft | 482 kts | 144° |
| 2026-05-04 17:36 | 58.27562 | 5.64006 | 34921 ft | 482 kts | 144° |
| 2026-05-04 17:37 | 58.22564 | 5.72437 | 34924 ft | 482 kts | 144° |
| 2026-05-04 17:37 | 58.17522 | 5.80910 | 34922 ft | 482 kts | 144° |
| 2026-05-04 17:38 | 58.12550 | 5.89234 | 34922 ft | 483 kts | 144° |
| 2026-05-04 17:38 | 58.07514 | 5.97630 | 34927 ft | 483 kts | 144° |
| 2026-05-04 17:39 | 57.99999 | 6.10102 | 34930 ft | 483 kts | 144° |
| 2026-05-04 17:39 | 57.94890 | 6.18537 | 34927 ft | 483 kts | 144° |
| 2026-05-04 17:40 | 57.89864 | 6.26804 | 34928 ft | 483 kts | 144° |
| 2026-05-04 17:40 | 57.84807 | 6.35091 | 34932 ft | 482 kts | 144° |
| 2026-05-04 17:41 | 57.79746 | 6.43351 | 34935 ft | 482 kts | 144° |
| 2026-05-04 17:41 | 57.74691 | 6.51571 | 34935 ft | 481 kts | 144° |
| 2026-05-04 17:42 | 57.69671 | 6.59701 | 34933 ft | 480 kts | 144° |
| 2026-05-04 17:42 | 57.64628 | 6.67837 | 34938 ft | 479 kts | 144° |
| 2026-05-04 17:43 | 57.59585 | 6.75944 | 34940 ft | 478 kts | 144° |
| 2026-05-04 17:43 | 57.54550 | 6.84005 | 34943 ft | 477 kts | 144° |
| 2026-05-04 17:44 | 57.49515 | 6.92037 | 34947 ft | 477 kts | 144° |
| 2026-05-04 17:44 | 57.44508 | 6.99995 | 34947 ft | 476 kts | 144° |
| 2026-05-04 17:45 | 57.39475 | 7.07963 | 34952 ft | 476 kts | 144° |
| 2026-05-04 17:45 | 57.34435 | 7.15915 | 34951 ft | 476 kts | 144° |
| 2026-05-04 17:46 | 57.29427 | 7.23785 | 34949 ft | 476 kts | 144° |
| 2026-05-04 17:46 | 57.24375 | 7.31696 | 34959 ft | 476 kts | 144° |
| 2026-05-04 17:47 | 57.19324 | 7.39576 | 34955 ft | 476 kts | 144° |
| 2026-05-04 17:47 | 57.14265 | 7.47441 | 34957 ft | 476 kts | 144° |
| 2026-05-04 17:48 | 57.09292 | 7.55150 | 34959 ft | 476 kts | 144° |
| 2026-05-04 17:48 | 57.04202 | 7.62753 | 34954 ft | 473 kts | 149° |
| 2026-05-04 17:49 | 56.98751 | 7.69481 | 34969 ft | 471 kts | 151° |
| 2026-05-04 17:49 | 56.93246 | 7.75996 | 34969 ft | 471 kts | 151° |
| 2026-05-04 17:50 | 56.87751 | 7.82558 | 34966 ft | 471 kts | 151° |
| 2026-05-04 17:50 | 56.82276 | 7.89155 | 34973 ft | 471 kts | 150° |
| 2026-05-04 17:51 | 56.76840 | 7.95710 | 34972 ft | 471 kts | 150° |
| 2026-05-04 17:51 | 56.71373 | 8.02281 | 34975 ft | 471 kts | 150° |
| 2026-05-04 17:52 | 56.65898 | 8.08834 | 34974 ft | 471 kts | 150° |
| 2026-05-04 17:52 | 56.60427 | 8.15357 | 34979 ft | 470 kts | 150° |
| 2026-05-04 17:53 | 56.54991 | 8.21815 | 34986 ft | 470 kts | 150° |
| 2026-05-04 17:53 | 56.49522 | 8.28291 | 34979 ft | 470 kts | 150° |
| 2026-05-04 17:54 | 56.44054 | 8.34742 | 34982 ft | 469 kts | 150° |
| 2026-05-04 17:54 | 56.38589 | 8.41167 | 34985 ft | 469 kts | 150° |
| 2026-05-04 17:55 | 56.33127 | 8.47567 | 34988 ft | 468 kts | 150° |
| 2026-05-04 17:55 | 56.27670 | 8.53939 | 34987 ft | 467 kts | 150° |
| 2026-05-04 17:56 | 56.22268 | 8.60225 | 34982 ft | 466 kts | 150° |
| 2026-05-04 17:56 | 56.16862 | 8.66494 | 34984 ft | 466 kts | 150° |
| 2026-05-04 17:57 | 56.11421 | 8.72783 | 34978 ft | 465 kts | 150° |
| 2026-05-04 17:57 | 56.05984 | 8.79044 | 34983 ft | 464 kts | 150° |
| 2026-05-04 17:58 | 56.00550 | 8.85282 | 34986 ft | 464 kts | 150° |
| 2026-05-04 17:58 | 55.95185 | 8.91420 | 34986 ft | 463 kts | 150° |
| 2026-05-04 17:59 | 55.89800 | 8.97560 | 34990 ft | 462 kts | 150° |
| 2026-05-04 18:00 | 55.81672 | 9.06788 | 34991 ft | 462 kts | 150° |
| 2026-05-04 18:00 | 55.76251 | 9.12918 | 34996 ft | 462 kts | 150° |
| 2026-05-04 18:01 | 55.70822 | 9.19035 | 34995 ft | 462 kts | 150° |
| 2026-05-04 18:01 | 55.65435 | 9.25085 | 34991 ft | 462 kts | 150° |
| 2026-05-04 18:02 | 55.57284 | 9.34203 | 34990 ft | 462 kts | 150° |
| 2026-05-04 18:02 | 55.51844 | 9.40263 | 34997 ft | 462 kts | 150° |
| 2026-05-04 18:03 | 55.46397 | 9.46311 | 34992 ft | 463 kts | 150° |
| 2026-05-04 18:03 | 55.40997 | 9.52286 | 34994 ft | 463 kts | 150° |
| 2026-05-04 18:04 | 55.35567 | 9.58276 | 34985 ft | 463 kts | 150° |
| 2026-05-04 18:05 | 55.27377 | 9.67272 | 34988 ft | 463 kts | 151° |
| 2026-05-04 18:05 | 55.21914 | 9.73248 | 34984 ft | 463 kts | 151° |
| 2026-05-04 18:06 | 55.13748 | 9.82146 | 34991 ft | 463 kts | 152° |
| 2026-05-04 18:06 | 55.08279 | 9.88079 | 34992 ft | 463 kts | 152° |
| 2026-05-04 18:07 | 55.02808 | 9.93997 | 34992 ft | 463 kts | 152° |
| 2026-05-04 18:07 | 54.97336 | 9.99896 | 34992 ft | 462 kts | 152° |
| 2026-05-04 18:08 | 54.91905 | 10.05733 | 34988 ft | 462 kts | 153° |
| 2026-05-04 18:08 | 54.86433 | 10.11595 | 34989 ft | 462 kts | 153° |
| 2026-05-04 18:09 | 54.75478 | 10.23279 | 34972 ft | 462 kts | 153° |
| 2026-05-04 18:10 | 54.70025 | 10.29152 | 34972 ft | 463 kts | 152° |
| 2026-05-04 18:10 | 54.64740 | 10.35420 | 34985 ft | 465 kts | 150° |
| 2026-05-04 18:11 | 54.59540 | 10.41750 | 34978 ft | 466 kts | 150° |
| 2026-05-04 18:11 | 54.54221 | 10.48165 | 34978 ft | 467 kts | 150° |
| 2026-05-04 18:12 | 54.48881 | 10.54533 | 34984 ft | 467 kts | 150° |
| 2026-05-04 18:12 | 54.43529 | 10.60875 | 34982 ft | 467 kts | 151° |
| 2026-05-04 18:13 | 54.38227 | 10.67136 | 34970 ft | 466 kts | 151° |
| 2026-05-04 18:14 | 54.30235 | 10.76537 | 34966 ft | 464 kts | 151° |
| 2026-05-04 18:14 | 54.24912 | 10.82774 | 34973 ft | 463 kts | 151° |
| 2026-05-04 18:15 | 54.14271 | 10.95180 | 34975 ft | 465 kts | 151° |
| 2026-05-04 18:16 | 54.08954 | 11.01350 | 34967 ft | 466 kts | 151° |
| 2026-05-04 18:16 | 54.03590 | 11.07556 | 34969 ft | 467 kts | 151° |
| 2026-05-04 18:17 | 53.95513 | 11.16865 | 34977 ft | 469 kts | 151° |
| 2026-05-04 18:18 | 53.87394 | 11.26176 | 34965 ft | 470 kts | 151° |
| 2026-05-04 18:18 | 53.82007 | 11.32330 | 34970 ft | 470 kts | 152° |
| 2026-05-04 18:19 | 53.73965 | 11.41482 | 34965 ft | 470 kts | 152° |
| 2026-05-04 18:19 | 53.68534 | 11.47638 | 34961 ft | 470 kts | 152° |
| 2026-05-04 18:20 | 53.63427 | 11.53409 | 34962 ft | 469 kts | 152° |
| 2026-05-04 18:20 | 53.58485 | 11.58977 | 34961 ft | 468 kts | 152° |
| 2026-05-04 18:21 | 53.53109 | 11.65017 | 34956 ft | 467 kts | 152° |
| 2026-05-04 18:21 | 53.47736 | 11.71033 | 34958 ft | 466 kts | 152° |
| 2026-05-04 18:22 | 53.42342 | 11.77055 | 34959 ft | 465 kts | 152° |
| 2026-05-04 18:22 | 53.36958 | 11.83047 | 34956 ft | 464 kts | 152° |
| 2026-05-04 18:23 | 53.31582 | 11.89011 | 34962 ft | 463 kts | 153° |
| 2026-05-04 18:23 | 53.26208 | 11.94955 | 34956 ft | 462 kts | 153° |
| 2026-05-04 18:24 | 53.20880 | 12.00830 | 34961 ft | 462 kts | 153° |
| 2026-05-04 18:24 | 53.15523 | 12.06720 | 34958 ft | 461 kts | 153° |
| 2026-05-04 18:25 | 53.10170 | 12.12586 | 34959 ft | 461 kts | 153° |
| 2026-05-04 18:25 | 53.04811 | 12.18441 | 34962 ft | 460 kts | 153° |
| 2026-05-04 18:26 | 52.99492 | 12.24235 | 34957 ft | 460 kts | 153° |
| 2026-05-04 18:26 | 52.94137 | 12.30052 | 34958 ft | 460 kts | 153° |
| 2026-05-04 18:27 | 52.88778 | 12.35856 | 34958 ft | 460 kts | 153° |
| 2026-05-04 18:27 | 52.83411 | 12.41649 | 34954 ft | 461 kts | 153° |
| 2026-05-04 18:28 | 52.78043 | 12.47427 | 34953 ft | 461 kts | 153° |
| 2026-05-04 18:28 | 52.72700 | 12.53162 | 34952 ft | 461 kts | 153° |
| 2026-05-04 18:29 | 52.67322 | 12.58916 | 34947 ft | 461 kts | 153° |
| 2026-05-04 18:29 | 52.61936 | 12.64663 | 34949 ft | 461 kts | 153° |
| 2026-05-04 18:30 | 52.53930 | 12.73173 | 34949 ft | 461 kts | 152° |
| 2026-05-04 18:31 | 52.48533 | 12.78888 | 34952 ft | 461 kts | 152° |
| 2026-05-04 18:31 | 52.43324 | 12.84389 | 34946 ft | 461 kts | 152° |
| 2026-05-04 18:32 | 52.37932 | 12.90066 | 34942 ft | 461 kts | 152° |
| 2026-05-04 18:32 | 52.32565 | 12.95701 | 34941 ft | 460 kts | 152° |
| 2026-05-04 18:33 | 52.27180 | 13.01338 | 34942 ft | 459 kts | 153° |
| 2026-05-04 18:33 | 52.21810 | 13.06942 | 34944 ft | 458 kts | 152° |
| 2026-05-04 18:34 | 52.16568 | 13.12397 | 34941 ft | 457 kts | 152° |
| 2026-05-04 18:34 | 52.11216 | 13.17950 | 34940 ft | 456 kts | 152° |
| 2026-05-04 18:35 | 52.05994 | 13.23354 | 34939 ft | 455 kts | 152° |
| 2026-05-04 18:35 | 52.00668 | 13.28849 | 34940 ft | 455 kts | 152° |
| 2026-05-04 18:36 | 51.95312 | 13.34359 | 34940 ft | 454 kts | 152° |
| 2026-05-04 18:36 | 51.90002 | 13.39806 | 34939 ft | 455 kts | 152° |
| 2026-05-04 18:37 | 51.84656 | 13.45276 | 34944 ft | 455 kts | 152° |
| 2026-05-04 18:37 | 51.79295 | 13.50744 | 34942 ft | 456 kts | 152° |
| 2026-05-04 18:38 | 51.73926 | 13.56205 | 34943 ft | 456 kts | 152° |
| 2026-05-04 18:38 | 51.68546 | 13.61662 | 34947 ft | 457 kts | 152° |
| 2026-05-04 18:39 | 51.63156 | 13.67113 | 34951 ft | 457 kts | 152° |
| 2026-05-04 18:39 | 51.57863 | 13.72410 | 34939 ft | 443 kts | 153° |
| 2026-05-04 18:40 | 51.52724 | 13.77550 | 34941 ft | 428 kts | 153° |
| 2026-05-04 18:40 | 51.47866 | 13.82418 | 34947 ft | 416 kts | 153° |
| 2026-05-04 18:41 | 51.42986 | 13.87284 | 34950 ft | 410 kts | 153° |
| 2026-05-04 18:41 | 51.38179 | 13.92076 | 34849 ft | 407 kts | 153° |
| 2026-05-04 18:41 | 51.35781 | 13.94459 | 34456 ft | 415 kts | 153° |
| 2026-05-04 18:42 | 51.33313 | 13.96910 | 34115 ft | 422 kts | 152° |
| 2026-05-04 18:42 | 51.30798 | 13.99407 | 33735 ft | 428 kts | 152° |
| 2026-05-04 18:42 | 51.28253 | 14.01933 | 33326 ft | 434 kts | 152° |
| 2026-05-04 18:42 | 51.25670 | 14.04494 | 32935 ft | 440 kts | 152° |
| 2026-05-04 18:43 | 51.23056 | 14.07083 | 32546 ft | 445 kts | 152° |
| 2026-05-04 18:43 | 51.21305 | 14.08816 | 32290 ft | 449 kts | 152° |
| 2026-05-04 18:43 | 51.18644 | 14.11447 | 31892 ft | 453 kts | 152° |
| 2026-05-04 18:43 | 51.15036 | 14.15009 | 31391 ft | 459 kts | 152° |
| 2026-05-04 18:44 | 51.13234 | 14.16786 | 31141 ft | 461 kts | 152° |
| 2026-05-04 18:44 | 51.11674 | 14.18324 | 30930 ft | 464 kts | 152° |
| 2026-05-04 18:44 | 51.07098 | 14.22835 | 30307 ft | 465 kts | 152° |
| 2026-05-04 18:44 | 51.04357 | 14.25546 | 29932 ft | 463 kts | 152° |
| 2026-05-04 18:45 | 51.02510 | 14.27368 | 29638 ft | 461 kts | 152° |
| 2026-05-04 18:45 | 50.99793 | 14.30043 | 29200 ft | 459 kts | 152° |
| 2026-05-04 18:45 | 50.97120 | 14.32659 | 28799 ft | 456 kts | 152° |
| 2026-05-04 18:45 | 50.94418 | 14.35289 | 28385 ft | 454 kts | 152° |
| 2026-05-04 18:46 | 50.92010 | 14.37868 | 28004 ft | 456 kts | 144° |
| 2026-05-04 18:46 | 50.89622 | 14.41174 | 27618 ft | 456 kts | 141° |
| 2026-05-04 18:46 | 50.87329 | 14.44470 | 27230 ft | 454 kts | 140° |
| 2026-05-04 18:46 | 50.84996 | 14.47835 | 26860 ft | 453 kts | 141° |
| 2026-05-04 18:47 | 50.82670 | 14.51180 | 26465 ft | 451 kts | 141° |
| 2026-05-04 18:47 | 50.80347 | 14.54507 | 26088 ft | 450 kts | 140° |
| 2026-05-04 18:47 | 50.78069 | 14.57753 | 25719 ft | 449 kts | 141° |
| 2026-05-04 18:47 | 50.75741 | 14.61062 | 25340 ft | 448 kts | 141° |
| 2026-05-04 18:48 | 50.73426 | 14.64342 | 24985 ft | 446 kts | 141° |
| 2026-05-04 18:48 | 50.71190 | 14.67502 | 24640 ft | 445 kts | 140° |
| 2026-05-04 18:48 | 50.70071 | 14.69085 | 24469 ft | 445 kts | 140° |
| 2026-05-04 18:48 | 50.67886 | 14.72546 | 24107 ft | 445 kts | 137° |
| 2026-05-04 18:49 | 50.65448 | 14.75469 | 23744 ft | 438 kts | 155° |
| 2026-05-04 18:49 | 50.62607 | 14.77025 | 23389 ft | 431 kts | 173° |
| 2026-05-04 18:49 | 50.59728 | 14.77128 | 22956 ft | 425 kts | 191° |
| 2026-05-04 18:49 | 50.56971 | 14.75807 | 22565 ft | 418 kts | 209° |
| 2026-05-04 18:50 | 50.54633 | 14.73177 | 22162 ft | 414 kts | 227° |
| 2026-05-04 18:50 | 50.52980 | 14.69526 | 21777 ft | 411 kts | 245° |
| 2026-05-04 18:50 | 50.52181 | 14.65231 | 21378 ft | 411 kts | 263° |
| 2026-05-04 18:50 | 50.52324 | 14.60765 | 20998 ft | 412 kts | 282° |
| 2026-05-04 18:51 | 50.53397 | 14.56593 | 20619 ft | 416 kts | 300° |
| 2026-05-04 18:51 | 50.55225 | 14.53057 | 20274 ft | 418 kts | 311° |
| 2026-05-04 18:51 | 50.57298 | 14.49863 | 19992 ft | 416 kts | 314° |
| 2026-05-04 18:51 | 50.59396 | 14.46794 | 19955 ft | 407 kts | 315° |
| 2026-05-04 18:52 | 50.61466 | 14.43822 | 19947 ft | 399 kts | 315° |
| 2026-05-04 18:52 | 50.63506 | 14.40912 | 19874 ft | 393 kts | 316° |
| 2026-05-04 18:52 | 50.65514 | 14.38056 | 19503 ft | 397 kts | 315° |
| 2026-05-04 18:52 | 50.67573 | 14.35123 | 19135 ft | 399 kts | 316° |
| 2026-05-04 18:53 | 50.69638 | 14.32181 | 18785 ft | 401 kts | 316° |
| 2026-05-04 18:53 | 50.71713 | 14.29225 | 18440 ft | 403 kts | 316° |
| 2026-05-04 18:53 | 50.73799 | 14.26255 | 18069 ft | 405 kts | 316° |
| 2026-05-04 18:53 | 50.75892 | 14.23271 | 17678 ft | 406 kts | 315° |
| 2026-05-04 18:54 | 50.77992 | 14.20277 | 17286 ft | 407 kts | 315° |
| 2026-05-04 18:54 | 50.80096 | 14.17281 | 16891 ft | 408 kts | 315° |
| 2026-05-04 18:54 | 50.82198 | 14.14284 | 16449 ft | 405 kts | 315° |
| 2026-05-04 18:54 | 50.84300 | 14.11345 | 16015 ft | 402 kts | 316° |
| 2026-05-04 18:55 | 50.86380 | 14.08415 | 15601 ft | 399 kts | 315° |